Time;durP1;ratioP1;P1;durP2;ratioP2;P2;SDS_P1;SDS_P2;PMS_P1;PMS_P2;Temp;Humidity;BMP_temperature;BMP_pressure;BME280_temperature;BME280_humidity;BME280_pressure;Samples;Min_cycle;Max_cycle;Signal;HPM_P1;HPM_P2
2023/09/25 00:01:39;;;;;;;4.07;2.10;;;11.40;99.90;;;-144.05;77.20;56904.06;5075328;28;20034;-79
2023/09/25 00:04:06;;;;;;;5.38;2.03;;;11.90;99.90;;;-144.05;77.07;56923.19;5083796;28;20032;-78
2023/09/25 00:06:31;;;;;;;3.70;2.00;;;11.80;99.90;;;-144.05;77.43;56921.06;5084235;28;20059;-79
2023/09/25 00:08:58;;;;;;;5.18;1.85;;;;;;;-144.05;77.41;56938.03;5085411;28;20024;-77
2023/09/25 00:11:23;;;;;;;4.43;2.20;;;11.60;99.90;;;-144.05;77.17;56927.41;5072338;28;20050;-79
2023/09/25 00:13:49;;;;;;;3.10;1.90;;;9.30;99.90;;;-144.05;77.38;56895.56;5071785;28;20477;-78
2023/09/25 00:16:18;;;;;;;4.95;2.05;;;9.20;99.90;;;-144.05;77.75;56921.06;5082645;28;20036;-78
2023/09/25 00:18:44;;;;;;;3.70;2.45;;;11.00;99.90;;;-144.05;77.57;56921.06;5073211;28;20112;-78
2023/09/25 00:21:10;;;;;;;2.30;2.10;;;8.90;99.90;;;-144.05;77.59;56912.56;5080549;28;20055;-78
2023/09/25 00:23:36;;;;;;;8.00;3.13;;;11.40;99.90;;;-144.05;79.40;56927.41;5075168;28;20445;-80
2023/09/25 00:26:06;;;;;;;4.63;2.65;;;11.40;99.90;;;-144.05;78.48;56940.16;5075224;28;20109;-79
2023/09/25 00:28:32;;;;;;;5.45;2.45;;;11.60;99.90;;;-144.05;78.77;56904.06;5074865;28;20013;-77
2023/09/25 00:30:59;;;;;;;3.38;2.40;;;9.60;99.90;;;-144.05;79.48;56931.66;5074473;28;20029;-78
2023/09/25 00:33:26;;;;;;;6.50;2.78;;;;;;;-144.05;79.21;56921.06;5074297;28;20017;-78
2023/09/25 00:35:56;;;;;;;6.57;2.50;;;9.10;99.90;;;-144.05;79.27;56908.31;5073082;28;20115;-78
2023/09/25 00:38:22;;;;;;;3.53;2.35;;;11.50;99.90;;;-144.05;79.23;56925.28;5073106;28;20021;-80
2023/09/25 00:40:48;;;;;;;4.57;2.78;;;11.40;99.90;;;-144.05;80.05;56904.06;5090206;28;20028;-78
2023/09/25 00:43:14;;;;;;;7.95;3.17;;;11.10;99.90;;;-144.05;80.54;56925.28;5086189;28;20020;-80
2023/09/25 00:45:44;;;;;;;3.90;2.35;;;11.30;99.90;;;-144.05;79.71;56897.69;5074635;28;20027;-80
2023/09/25 00:48:30;;;;;;;9.07;3.13;;;11.10;99.90;;;-144.05;80.46;56914.69;5075557;28;20447;-84
2023/09/25 00:51:00;;;;;;;4.68;3.38;;;11.30;99.90;;;-144.05;80.09;56918.94;5076213;28;20058;-82
2023/09/25 00:53:29;;;;;;;5.18;3.00;;;9.30;99.90;;;-144.05;80.00;56910.44;5076600;28;20555;-80
2023/09/25 00:55:56;;;;;;;4.75;2.83;;;11.70;99.90;;;-144.05;79.29;56914.69;5075960;28;20082;-78
2023/09/25 00:58:25;;;;;;;5.95;3.03;;;11.20;99.90;;;-144.05;79.63;56916.81;5074587;28;20070;-81
2023/09/25 01:00:52;;;;;;;5.38;3.00;;;11.80;99.90;;;-144.05;79.75;56942.28;5075467;28;20035;-80
2023/09/25 01:03:18;;;;;;;5.43;2.25;;;11.20;99.90;;;-144.05;79.82;56914.69;5075105;28;20016;-78
2023/09/25 01:05:45;;;;;;;10.18;2.90;;;10.20;99.90;;;-144.05;79.48;56925.28;5075615;28;20339;-80
2023/09/25 01:08:12;;;;;;;5.38;2.92;;;11.20;99.90;;;-144.05;80.44;56906.19;5074570;28;20033;-80
2023/09/25 01:10:40;;;;;;;4.97;2.58;;;11.60;99.90;;;-144.05;80.29;56931.66;5074362;28;20032;-77
2023/09/25 01:13:06;;;;;;;7.10;2.58;;;11.10;99.90;;;-144.05;80.40;56916.81;5074165;28;20043;-80
2023/09/25 01:15:33;;;;;;;6.78;3.65;;;;;;;-144.05;80.79;56944.41;5074216;28;20048;-80
2023/09/25 01:17:59;;;;;;;7.70;3.58;;;11.70;99.90;;;-144.05;80.36;56933.78;5074206;28;20058;-80
2023/09/25 01:20:25;;;;;;;4.05;2.88;;;9.20;99.90;;;-144.05;80.22;56925.28;5073959;28;20081;-80
2023/09/25 01:22:51;;;;;;;3.90;2.28;;;11.20;99.90;;;-144.05;80.27;56916.81;5072624;28;20024;-83
2023/09/25 01:25:20;;;;;;;3.55;2.55;;;11.40;99.90;;;-144.05;80.23;56933.78;5073008;28;20393;-80
2023/09/25 01:27:48;;;;;;;2.92;2.25;;;11.20;99.90;;;-144.05;80.79;56918.94;5089471;28;20457;-78
2023/09/25 01:30:16;;;;;;;4.75;2.83;;;11.70;99.90;;;-144.05;80.57;56942.28;5073004;28;20036;-80
2023/09/25 01:32:46;;;;;;;5.72;3.53;;;10.90;99.90;;;-144.05;81.04;56925.28;5073455;28;20107;-79
2023/09/25 01:35:17;;;;;;;7.50;3.60;;;11.40;99.90;;;-144.05;81.55;56940.16;5085891;28;20489;-77
2023/09/25 01:37:45;;;;;;;11.07;3.67;;;11.60;99.90;;;-144.05;81.45;56935.91;5072118;28;20039;-80
2023/09/25 01:40:13;;;;;;;5.75;3.70;;;11.40;99.90;;;-144.05;81.41;56925.28;5073111;28;20119;-78
2023/09/25 01:42:39;;;;;;;6.60;3.65;;;11.60;99.90;;;-144.05;81.05;56942.28;5088883;28;20044;-78
2023/09/25 01:45:08;;;;;;;5.35;3.85;;;11.40;99.90;;;-144.05;80.88;56908.31;5073295;28;20118;-78
2023/09/25 01:47:37;;;;;;;4.55;3.42;;;10.10;99.90;;;-144.05;80.80;56901.94;5066427;28;20342;-78
2023/09/25 01:50:03;;;;;;;5.28;3.38;;;11.10;99.90;;;-144.05;80.49;56921.06;5073080;28;20111;-79
2023/09/25 01:52:30;;;;;;;7.25;3.42;;;11.50;99.90;;;-144.05;80.55;56944.41;5073221;28;20513;-79
2023/09/25 01:54:56;;;;;;;6.75;3.90;;;11.50;99.90;;;-144.05;81.27;56916.81;5073248;28;20520;-80
2023/09/25 01:57:22;;;;;;;6.20;3.65;;;9.40;99.90;;;-144.05;80.93;56948.66;5072756;28;20078;-78
2023/09/25 01:59:48;;;;;;;5.25;3.50;;;11.80;99.90;;;-144.05;81.22;56940.16;5073054;28;20020;-78
2023/09/25 02:02:14;;;;;;;5.80;3.58;;;11.80;99.90;;;-144.05;81.27;56942.28;5072646;28;20028;-78
2023/09/25 02:04:40;;;;;;;7.05;3.55;;;11.10;99.90;;;-144.05;81.29;56940.16;5071432;28;20028;-79
2023/09/25 02:07:05;;;;;;;5.93;3.47;;;11.10;99.90;;;-144.05;80.98;56887.06;5088289;28;20070;-80
2023/09/25 02:09:32;;;;;;;5.47;3.40;;;;;;;-144.05;81.11;56916.81;5072592;28;20029;-76
2023/09/25 02:11:58;;;;;;;8.43;4.10;;;;;;;-144.05;80.60;56940.16;5071034;28;20028;-78
2023/09/25 02:14:25;;;;;;;6.07;3.30;;;11.00;99.90;;;-144.05;80.59;56925.28;5072500;28;20028;-78
2023/09/25 02:16:51;;;;;;;7.13;3.03;;;11.40;99.90;;;-144.05;80.44;56923.19;5085675;28;20471;-78
2023/09/25 02:19:18;;;;;;;7.30;3.38;;;10.90;99.90;;;-144.05;80.51;56921.06;5072349;28;20097;-78
2023/09/25 02:21:44;;;;;;;3.63;3.10;;;8.90;99.90;;;-144.05;80.93;56925.28;5072416;28;20020;-78
2023/09/25 02:24:10;;;;;;;4.07;2.72;;;11.50;99.90;;;-144.05;80.99;56929.53;5072240;28;20470;-78
2023/09/25 02:26:37;;;;;;;4.93;3.20;;;;;;;-144.05;80.62;56942.28;5072416;28;20095;-80
2023/09/25 02:29:03;;;;;;;6.03;3.25;;;8.70;99.90;;;-144.05;80.91;56935.91;5070979;28;20489;-78
2023/09/25 02:31:28;;;;;;;6.30;3.33;;;11.60;99.90;;;-144.05;80.84;56914.69;5071890;28;20082;-80
2023/09/25 02:33:54;;;;;;;5.32;2.70;;;8.70;99.90;;;-144.05;80.69;56878.56;5070868;28;20161;-80
2023/09/25 02:36:20;;;;;;;8.27;3.85;;;11.50;99.90;;;-144.05;80.60;56938.03;5071940;28;20342;-79
2023/09/25 02:38:46;;;;;;;6.10;3.22;;;11.50;99.90;;;-144.05;81.23;56921.06;5072161;28;20067;-78
2023/09/25 02:41:12;;;;;;;5.30;2.83;;;11.00;99.90;;;-144.05;80.92;56921.06;5070973;28;20198;-78
2023/09/25 02:43:38;;;;;;;9.35;3.78;;;11.50;99.90;;;-144.05;81.06;56950.78;5072041;28;20096;-78
2023/09/25 02:46:05;;;;;;;4.68;2.85;;;8.80;99.90;;;-144.05;81.28;56929.53;5071882;28;20104;-80
2023/09/25 02:48:31;;;;;;;6.28;3.78;;;10.90;99.90;;;-144.05;81.32;56923.19;5071944;28;20475;-79
2023/09/25 02:50:57;;;;;;;5.90;3.45;;;;;;;-144.05;81.44;56940.16;5085573;28;20025;-79
2023/09/25 02:53:25;;;;;;;5.30;3.92;;;;;;;-144.05;81.45;56931.66;5071811;28;20025;-78
2023/09/25 02:55:51;;;;;;;6.57;3.53;;;11.40;99.90;;;-144.05;81.56;56938.03;5083877;28;20017;-78
2023/09/25 02:58:17;;;;;;;5.78;3.88;;;11.40;99.90;;;-144.05;81.56;56929.53;5069916;28;20020;-80
2023/09/25 03:00:45;;;;;;;8.32;4.43;;;11.40;99.90;;;-144.05;82.09;56916.81;5071697;28;20029;-79
2023/09/25 03:03:11;;;;;;;8.30;4.32;;;9.20;99.90;;;-144.05;81.79;56935.91;5071582;28;20020;-80
2023/09/25 03:05:37;;;;;;;7.20;3.75;;;9.20;99.90;;;-144.05;81.39;56927.41;5071972;28;20036;-78
2023/09/25 03:08:04;;;;;;;5.97;4.40;;;11.30;99.90;;;-144.05;82.24;56940.16;5071877;28;20036;-80
2023/09/25 03:10:30;;;;;;;7.72;4.20;;;9.10;99.90;;;-144.05;82.36;56946.53;5070238;28;20028;-79
2023/09/25 03:12:56;;;;;;;7.63;4.55;;;11.50;99.90;;;-144.05;82.52;56933.78;5070210;28;20074;-79
2023/09/25 03:15:21;;;;;;;7.43;3.60;;;11.20;99.90;;;-144.05;82.24;56961.41;5071200;28;20052;-80
2023/09/25 03:17:47;;;;;;;6.38;4.13;;;11.00;99.90;;;-144.05;82.17;56938.03;5071404;28;20059;-80
2023/09/25 03:20:15;;;;;;;6.40;3.38;;;11.10;99.90;;;-144.05;82.45;56933.78;5071243;28;20050;-79
2023/09/25 03:22:43;;;;;;;5.82;3.20;;;11.40;99.90;;;-144.05;82.25;56946.53;5071826;28;20020;-78
2023/09/25 03:25:10;;;;;;;6.95;3.38;;;9.20;99.90;;;-144.05;82.36;56912.56;5071351;28;20337;-78
2023/09/25 03:27:37;;;;;;;5.93;3.30;;;9.80;99.90;;;-144.05;82.05;56929.53;5071491;28;20020;-80
2023/09/25 03:30:05;;;;;;;7.22;3.53;;;9.70;99.90;;;-144.05;82.24;56914.69;5069961;28;20032;-80
2023/09/25 03:32:32;;;;;;;6.63;3.65;;;9.80;99.90;;;-144.05;82.31;56946.53;5069879;28;20020;-80
2023/09/25 03:34:57;;;;;;;6.85;4.03;;;11.10;99.90;;;-144.05;82.66;56916.81;5071386;28;20020;-80
2023/09/25 03:37:24;;;;;;;4.90;3.17;;;;;;;-144.05;82.12;56942.28;5071003;28;20497;-76
2023/09/25 03:39:49;;;;;;;6.07;3.45;;;9.80;99.90;;;-144.05;82.44;56942.28;5069721;28;20028;-77
2023/09/25 03:42:16;;;;;;;4.60;3.08;;;9.60;99.90;;;-144.05;82.13;56938.03;5070687;28;20384;-78
2023/09/25 03:44:41;;;;;;;5.70;3.72;;;8.40;99.90;;;-144.05;82.23;56938.03;5069775;28;20082;-78
2023/09/25 03:47:07;;;;;;;8.73;3.53;;;9.60;99.90;;;-144.05;82.44;56925.28;5071248;28;20497;-79
2023/09/25 03:49:33;;;;;;;6.82;4.10;;;9.10;99.90;;;-144.05;82.53;56921.06;5071129;28;20393;-78
2023/09/25 03:51:59;;;;;;;9.70;4.18;;;9.80;99.90;;;-144.05;82.49;56944.41;5070793;28;20032;-80
2023/09/25 03:54:25;;;;;;;8.35;3.90;;;7.00;99.90;;;-144.05;82.04;56916.81;5069644;28;20020;-80
2023/09/25 03:56:50;;;;;;;8.98;4.13;;;6.90;99.90;;;-144.05;82.77;56950.78;5070899;28;20061;-80
2023/09/25 03:59:16;;;;;;;6.57;3.42;;;9.00;99.90;;;-144.05;82.66;56950.78;5070839;28;20146;-79
2023/09/25 04:01:42;;;;;;;7.22;3.83;;;8.40;99.90;;;-144.05;83.05;56933.78;5070847;28;20044;-80
2023/09/25 04:04:08;;;;;;;8.77;3.42;;;;;;;-144.05;82.84;56944.41;5070873;28;20029;-76
2023/09/25 04:06:34;;;;;;;5.55;3.20;;;5.90;99.90;;;-144.05;82.59;56942.28;5058689;28;20075;-80
2023/09/25 04:09:00;;;;;;;6.55;3.95;;;;;;;-144.05;82.95;56927.41;5066467;28;20504;-78
2023/09/25 04:11:27;;;;;;;5.97;3.53;;;9.30;99.90;;;-144.05;82.67;56938.03;5085328;28;20032;-79
2023/09/25 04:13:54;;;;;;;6.72;4.15;;;9.20;99.90;;;-144.05;83.00;56961.41;5085631;28;20021;-81
2023/09/25 04:16:20;;;;;;;9.63;4.18;;;9.20;99.90;;;-144.05;82.77;56929.53;5070698;28;20386;-80
2023/09/25 04:18:46;;;;;;;5.93;3.33;;;9.50;99.90;;;-144.05;82.46;56935.91;5071042;28;20048;-79
2023/09/25 04:21:14;;;;;;;7.40;3.55;;;8.80;99.90;;;-144.05;82.68;56959.28;5070697;28;20060;-80
2023/09/25 04:23:41;;;;;;;6.03;3.22;;;8.20;99.90;;;-144.05;82.74;56925.28;5070789;28;20021;-79
2023/09/25 04:26:07;;;;;;;10.05;3.97;;;7.70;99.90;;;-144.05;83.01;56938.03;5070652;28;20029;-79
2023/09/25 04:28:34;;;;;;;5.82;4.13;;;9.30;99.90;;;-144.05;83.21;56952.91;5070864;28;20059;-79
2023/09/25 04:31:06;;;;;;;6.65;4.15;;;8.90;99.90;;;-144.05;82.91;56950.78;5070888;28;20066;-78
2023/09/25 04:33:35;;;;;;;4.95;3.53;;;8.90;99.90;;;-144.05;82.90;56946.53;5070507;28;20071;-79
2023/09/25 04:36:01;;;;;;;8.10;4.07;;;9.20;99.90;;;-144.05;83.25;56950.78;5070739;28;20029;-80
2023/09/25 04:38:28;;;;;;;8.13;3.90;;;6.30;99.90;;;-144.05;83.13;56950.78;5070291;28;20020;-81
2023/09/25 04:40:55;;;;;;;7.63;3.17;;;9.30;99.90;;;-144.05;82.99;56961.41;5069122;28;20033;-79
2023/09/25 04:43:22;;;;;;;6.95;3.88;;;9.00;99.90;;;-144.05;83.14;56940.16;5070557;28;20078;-81
2023/09/25 04:45:51;;;;;;;5.50;3.67;;;9.40;99.90;;;-144.05;83.32;56948.66;5070892;28;20062;-79
2023/09/25 04:48:24;;;;;;;7.22;3.90;;;8.10;99.90;;;-144.05;83.52;56929.53;5069056;28;20033;-80
2023/09/25 04:50:50;;;;;;;5.05;3.53;;;8.90;99.90;;;-144.05;83.69;56959.28;5069176;28;20029;-80
2023/09/25 04:53:19;;;;;;;6.18;3.95;;;8.40;99.90;;;-144.05;83.47;56921.06;5069075;28;20142;-79
2023/09/25 04:55:46;;;;;;;9.95;4.28;;;8.00;99.90;;;-144.05;83.61;56959.28;5070776;28;20028;-81
2023/09/25 04:58:12;;;;;;;7.18;4.10;;;9.20;99.90;;;-144.05;83.96;56935.91;5069401;28;20024;-81
2023/09/25 05:00:38;;;;;;;7.97;4.90;;;8.50;99.90;;;-144.05;83.79;56933.78;5070910;28;20032;-79
2023/09/25 05:03:04;;;;;;;9.10;3.90;;;8.90;99.90;;;-144.05;83.51;56946.53;5069630;28;20123;-78
2023/09/25 05:05:32;;;;;;;6.13;3.78;;;9.00;99.90;;;-144.05;83.42;56940.16;5072192;28;20099;-80
2023/09/25 05:07:58;;;;;;;11.45;4.05;;;9.10;99.90;;;-144.05;83.74;56952.91;5073489;28;20028;-80
2023/09/25 05:10:27;;;;;;;6.70;3.63;;;9.00;99.90;;;-144.05;83.72;56923.19;5075539;28;20048;-81
2023/09/25 05:12:55;;;;;;;11.75;4.85;;;8.80;99.90;;;-144.05;83.74;56950.78;5074942;28;20489;-81
2023/09/25 05:15:22;;;;;;;6.28;4.03;;;8.90;99.90;;;-144.05;83.16;56942.28;5075641;28;20492;-80
2023/09/25 05:17:49;;;;;;;7.75;3.53;;;8.20;99.90;;;-144.05;83.72;56916.81;5075069;28;20097;-79
2023/09/25 05:20:19;;;;;;;4.90;3.45;;;8.70;99.90;;;-144.05;83.73;56927.41;5074691;28;20025;-80
2023/09/25 05:22:52;;;;;;;6.00;3.80;;;6.60;99.90;;;-144.05;83.59;56948.66;5075393;28;20025;-81
2023/09/25 05:25:20;;;;;;;4.75;3.55;;;5.90;99.90;;;-144.05;84.03;56950.78;5074947;28;20495;-78
2023/09/25 05:27:54;;;;;;;5.53;3.72;;;9.00;99.90;;;-144.05;83.89;56957.16;5074925;28;20161;-80
2023/09/25 05:30:20;;;;;;;7.45;3.60;;;5.70;99.90;;;-144.05;84.07;56963.53;5090698;28;20119;-79
2023/09/25 05:32:49;;;;;;;4.82;3.22;;;6.30;99.90;;;-144.05;84.03;56921.06;5075010;28;20067;-80
2023/09/25 05:35:17;;;;;;;5.30;4.05;;;9.10;99.90;;;-144.05;83.99;56908.31;5073402;28;20107;-81
2023/09/25 05:37:45;;;;;;;9.38;4.45;;;6.30;99.90;;;-144.05;83.75;56946.53;5074558;28;20083;-82
2023/09/25 05:40:14;;;;;;;7.03;4.32;;;8.60;99.90;;;-144.05;83.80;56952.91;5074149;28;20054;-80
2023/09/25 05:42:46;;;;;;;8.02;3.95;;;5.90;99.90;;;-144.05;84.13;56942.28;5074192;28;20095;-79
2023/09/25 05:45:16;;;;;;;9.50;4.30;;;6.90;99.90;;;-144.05;84.04;56944.41;5073974;28;20024;-80
2023/09/25 05:47:44;;;;;;;6.30;3.53;;;;;;;-144.05;83.67;56965.66;5074375;28;20032;-78
2023/09/25 05:50:11;;;;;;;7.47;4.10;;;9.20;99.90;;;-144.05;83.79;56946.53;5074877;28;20050;-80
2023/09/25 05:52:39;;;;;;;5.43;3.78;;;8.70;99.90;;;-144.05;83.66;56950.78;5085213;28;20089;-81
2023/09/25 05:55:08;;;;;;;6.63;3.85;;;9.00;99.90;;;-144.05;83.78;56946.53;5075372;28;20040;-83
2023/09/25 05:57:34;;;;;;;5.50;3.35;;;9.10;99.90;;;-144.05;83.88;56938.03;5082224;28;20032;-83
2023/09/25 06:00:00;;;;;;;7.20;3.63;;;8.30;99.90;;;-144.05;83.97;56950.78;5076075;28;20036;-81
2023/09/25 06:02:33;;;;;;;8.38;3.75;;;9.60;99.90;;;-144.05;83.66;56931.66;5075322;28;20028;-80
2023/09/25 06:04:59;;;;;;;9.85;4.38;;;8.40;99.90;;;-144.05;83.62;56946.53;5071431;28;20033;-83
2023/09/25 06:07:25;;;;;;;14.98;5.35;;;8.60;99.90;;;-144.05;85.37;56931.66;5073762;28;20060;-81
2023/09/25 06:09:51;;;;;;;9.30;5.55;;;8.70;99.90;;;-144.05;85.32;56944.41;5074052;28;20032;-78
2023/09/25 06:12:17;;;;;;;13.30;4.60;;;11.60;99.90;;;-144.05;84.04;56918.94;5072893;28;20044;-80
2023/09/25 06:14:43;;;;;;;10.57;4.47;;;11.50;99.90;;;-144.05;83.82;56918.94;5073452;28;20060;-79
2023/09/25 06:17:09;;;;;;;6.13;3.72;;;10.00;99.90;;;-144.05;82.61;56933.78;5072987;28;20117;-80
2023/09/25 06:19:36;;;;;;;6.18;3.30;;;11.00;99.90;;;-144.05;79.60;56938.03;5073354;28;20501;-80
2023/09/25 06:22:03;;;;;;;5.65;2.00;;;14.60;99.90;;;-144.05;77.77;56933.78;5072973;28;20089;-82
2023/09/25 06:24:29;;;;;;;5.05;2.53;;;;;;;-144.05;77.75;56927.41;5073039;28;20104;-80
2023/09/25 06:26:55;;;;;;;4.93;1.50;;;14.50;99.90;;;-144.05;72.49;56891.31;5072618;28;20020;-81
2023/09/25 06:29:21;;;;;;;2.63;1.67;;;14.90;99.90;;;-144.05;71.11;56893.44;5072449;28;20024;-81
2023/09/25 06:31:47;;;;;;;3.10;1.63;;;10.50;99.90;;;-144.05;71.00;56910.44;5091494;28;20020;-77
2023/09/25 06:34:15;;;;;;;1.92;1.52;;;14.80;99.90;;;-144.05;69.05;56910.44;5091716;28;20017;-82
2023/09/25 06:36:41;;;;;;;3.40;1.70;;;14.50;99.90;;;-144.05;65.51;56916.81;5091108;28;20035;-83
2023/09/25 06:39:09;;;;;;;4.85;1.27;;;14.20;99.90;;;-144.05;63.65;56882.81;5086876;28;20032;-79
2023/09/25 06:41:41;;;;;;;3.40;1.65;;;15.30;99.90;;;-144.05;62.67;56904.06;5072388;28;20020;-78
2023/09/25 06:44:07;;;;;;;3.08;2.00;;;15.00;99.90;;;-144.05;61.96;56893.44;5079685;28;20031;-79
2023/09/25 06:46:34;;;;;;;4.28;1.63;;;15.10;99.90;;;-144.05;60.88;56918.94;5072617;28;20413;-79
2023/09/25 06:49:02;;;;;;;2.55;1.55;;;16.00;99.90;;;-144.05;59.28;56912.56;5067920;28;20021;-81
2023/09/25 06:51:31;;;;;;;5.00;1.40;;;15.30;99.90;;;-144.05;58.48;56906.19;5071145;28;20027;-79
2023/09/25 06:53:57;;;;;;;3.15;1.63;;;12.90;99.90;;;-144.05;58.60;56901.94;5071866;28;20051;-79
2023/09/25 06:56:23;;;;;;;2.03;1.15;;;15.70;99.90;;;-144.05;57.67;56914.69;5071854;28;20032;-77
2023/09/25 06:58:51;;;;;;;5.00;1.30;;;16.00;99.90;;;-144.05;58.19;56935.91;5072346;28;20020;-80
2023/09/25 07:01:17;;;;;;;2.50;1.10;;;16.60;99.90;;;-144.05;58.09;56906.19;5070867;28;20032;-78
2023/09/25 07:03:45;;;;;;;2.70;1.30;;;14.90;99.90;;;-144.05;58.07;56914.69;5072878;28;20021;-81
2023/09/25 07:06:11;;;;;;;2.60;1.15;;;16.50;99.90;;;-144.05;58.12;56893.44;5072283;28;20035;-80
2023/09/25 07:08:38;;;;;;;2.85;1.42;;;;;;;-144.05;57.07;56908.31;5071064;28;20091;-78
2023/09/25 07:11:04;;;;;;;2.20;1.45;;;15.80;99.90;;;-144.05;57.29;56923.19;5072410;28;20036;-81
2023/09/25 07:13:32;;;;;;;3.88;1.50;;;16.40;99.90;;;-144.05;57.36;56935.91;5072004;28;20051;-80
2023/09/25 07:16:08;;;;;;;5.70;1.25;;;16.60;99.90;;;-144.05;56.36;56910.44;5072301;28;20028;-79
2023/09/25 07:18:35;;;;;;;4.72;1.38;;;13.70;99.90;;;-144.05;56.06;56910.44;5071891;28;20107;-81
2023/09/25 07:21:01;;;;;;;3.67;1.10;;;15.60;99.90;;;-144.05;55.53;56929.53;5071873;28;20052;-79
2023/09/25 07:23:28;;;;;;;1.70;1.15;;;16.60;99.90;;;-144.05;54.80;56925.28;5071944;28;20832;-80
2023/09/25 07:26:20;;;;;;;2.95;1.10;;;16.90;99.90;;;-144.05;54.12;56935.91;5072132;28;20103;-80
2023/09/25 07:28:49;;;;;;;2.70;1.33;;;16.90;99.90;;;-144.05;53.88;56918.94;5069696;28;20078;-80
2023/09/25 07:31:26;;;;;;;4.32;1.13;;;16.10;99.90;;;-144.05;53.68;56940.16;5071915;28;20389;-80
2023/09/25 07:33:55;;;;;;;4.18;1.48;;;17.80;99.90;;;-144.05;52.93;56929.53;5071813;28;20019;-81
2023/09/25 07:36:24;;;;;;;3.20;1.20;;;17.30;99.90;;;-144.05;53.10;56899.81;5071689;28;20024;-79
2023/09/25 07:38:50;;;;;;;3.72;1.45;;;17.30;99.90;;;-144.05;53.42;56927.41;5071597;28;20534;-81
2023/09/25 07:41:18;;;;;;;2.22;1.30;;;;;;;-144.05;52.41;56921.06;5068019;28;20049;-80
2023/09/25 07:43:44;;;;;;;2.65;1.33;;;17.50;99.90;;;-144.05;52.61;56925.28;5071704;28;20039;-78
2023/09/25 07:46:10;;;;;;;4.55;1.35;;;;;;;-144.05;51.90;56889.19;5071866;28;20040;-81
2023/09/25 07:48:39;;;;;;;3.20;1.48;;;17.80;99.90;;;-144.05;51.93;56933.78;5072240;28;20211;-79
2023/09/25 07:51:07;;;;;;;2.63;1.38;;;18.20;99.90;;;-144.05;52.84;56906.19;5071983;28;20428;-79
2023/09/25 07:53:34;;;;;;;4.30;1.83;;;17.50;99.90;;;-144.05;52.02;56918.94;5071833;28;20032;-79
2023/09/25 07:56:03;;;;;;;4.10;1.77;;;17.60;99.90;;;-144.05;51.79;56914.69;5070737;28;20074;-79
2023/09/25 07:58:28;;;;;;;4.25;1.58;;;16.80;99.90;;;-144.05;51.23;56910.44;5071792;28;20397;-78
2023/09/25 08:01:00;;;;;;;4.00;1.85;;;17.00;99.90;;;-144.05;50.80;56933.78;5067443;28;20033;-78
2023/09/25 08:03:26;;;;;;;3.58;1.42;;;15.70;99.90;;;-144.05;50.02;56933.78;5070600;28;20435;-78
2023/09/25 08:05:53;;;;;;;4.18;1.17;;;15.70;99.90;;;-144.05;49.69;56923.19;5072243;28;20013;-78
2023/09/25 08:08:20;;;;;;;2.45;1.25;;;;;;;-144.05;48.12;56931.66;5071884;28;20021;-79
2023/09/25 08:10:47;;;;;;;3.20;1.17;;;18.80;99.90;;;-144.05;47.39;56935.91;5071630;28;20024;-81
2023/09/25 08:13:15;;;;;;;2.78;1.45;;;19.50;99.90;;;-144.05;47.37;56931.66;5071852;28;20036;-79
2023/09/25 08:15:41;;;;;;;4.28;1.08;;;19.50;99.90;;;-144.05;46.45;56948.66;5070385;28;20115;-80
2023/09/25 08:18:06;;;;;;;4.88;1.63;;;19.40;99.90;;;-144.05;46.50;56946.53;5071514;28;20104;-79
2023/09/25 08:20:32;;;;;;;3.85;1.27;;;19.80;99.90;;;-144.05;46.87;56942.28;5071536;28;20120;-81
2023/09/25 08:22:59;;;;;;;3.85;1.40;;;19.60;99.90;;;-144.05;45.88;56933.78;5072697;28;20021;-78
2023/09/25 08:25:25;;;;;;;4.03;1.40;;;19.90;99.90;;;-144.05;43.63;56931.66;5072935;28;20497;-80
2023/09/25 08:27:51;;;;;;;3.92;1.10;;;17.20;99.90;;;-144.05;43.00;56931.66;5074164;28;20029;-82
2023/09/25 08:30:18;;;;;;;2.40;1.40;;;20.20;99.90;;;-144.05;42.77;56925.28;5072968;28;20515;-80
2023/09/25 08:32:45;;;;;;;4.38;1.65;;;20.40;99.90;;;-144.05;42.05;56940.16;5072459;28;20111;-81
2023/09/25 08:35:12;;;;;;;2.47;1.48;;;16.70;99.90;;;-144.05;43.10;56921.06;5082019;28;20028;-80
2023/09/25 08:37:38;;;;;;;3.00;1.35;;;19.90;99.90;;;-144.05;42.51;56935.91;5071946;28;20033;-78
2023/09/25 08:40:06;;;;;;;2.17;1.23;;;19.40;99.90;;;-144.05;41.60;56946.53;5074179;28;20116;-78
2023/09/25 08:42:33;;;;;;;2.33;1.17;;;20.50;99.90;;;-144.05;40.99;56957.16;5074467;28;20056;-80
2023/09/25 08:45:04;;;;;;;2.95;1.27;;;20.80;99.90;;;-144.05;41.89;56933.78;5075146;28;20025;-80
2023/09/25 08:47:36;;;;;;;3.20;1.50;;;21.10;99.90;;;-144.05;40.25;56961.41;5075382;28;20032;-78
2023/09/25 08:50:03;;;;;;;3.47;1.30;;;19.60;99.90;;;-144.05;39.87;56940.16;5074586;28;20098;-81
2023/09/25 08:52:31;;;;;;;2.30;1.10;;;21.30;99.90;;;-144.05;39.46;56957.16;5074961;28;20028;-81
2023/09/25 08:54:59;;;;;;;2.58;1.30;;;19.70;99.90;;;-144.05;39.88;56955.03;5075242;28;20040;-78
2023/09/25 08:57:25;;;;;;;2.25;1.13;;;21.00;99.90;;;-144.05;37.98;56931.66;5075172;28;20353;-79
2023/09/25 08:59:51;;;;;;;4.55;1.77;;;21.50;99.90;;;-144.05;38.43;56952.91;5075374;28;20024;-80
2023/09/25 09:02:18;;;;;;;2.97;1.20;;;21.80;99.90;;;-144.05;37.67;56976.28;5088189;28;20025;-80
2023/09/25 09:04:45;;;;;;;2.63;1.13;;;18.20;99.90;;;-144.05;37.37;56948.66;5074634;28;20025;-78
2023/09/25 09:07:14;;;;;;;2.47;1.40;;;21.60;99.90;;;-144.05;37.95;56938.03;5074743;28;20505;-80
2023/09/25 09:09:41;;;;;;;1.75;1.17;;;21.50;99.90;;;-144.05;38.25;56940.16;5073290;28;20039;-81
2023/09/25 09:12:07;;;;;;;2.08;1.33;;;20.80;99.90;;;-144.05;37.13;56938.03;5075031;28;20024;-79
2023/09/25 09:14:43;;;;;;;4.85;1.30;;;21.50;99.90;;;-144.05;36.77;56952.91;5074842;28;20028;-80
2023/09/25 09:17:11;;;;;;;3.15;1.40;;;21.50;99.90;;;-144.05;37.56;56942.28;5074997;28;20534;-80
2023/09/25 09:19:46;;;;;;;2.45;1.30;;;18.50;99.90;;;-144.05;37.13;56950.78;5071879;28;20071;-80
2023/09/25 09:22:16;;;;;;;4.03;1.60;;;18.50;99.90;;;-144.05;38.28;56961.41;5074090;28;20036;-79
2023/09/25 09:24:43;;;;;;;4.38;1.30;;;21.80;99.90;;;-144.05;37.41;56952.91;5074156;28;20370;-78
2023/09/25 09:27:11;;;;;;;3.47;1.13;;;21.50;99.90;;;-144.05;37.47;56965.66;5074168;28;20099;-79
2023/09/25 09:29:43;;;;;;;2.47;1.38;;;21.20;99.90;;;-144.05;35.85;56993.25;5072947;28;20029;-79
2023/09/25 09:32:10;;;;;;;3.35;1.27;;;22.00;99.90;;;-144.05;36.78;56969.91;5073670;28;20457;-78
2023/09/25 09:34:41;;;;;;;1.95;1.10;;;18.70;99.90;;;-144.05;37.01;56952.91;5071517;28;20024;-81
2023/09/25 09:37:10;;;;;;;3.22;1.50;;;21.90;99.90;;;-144.05;36.23;56976.28;5074430;28;20028;-80
2023/09/25 09:39:37;;;;;;;3.00;1.35;;;22.60;99.90;;;-144.05;36.33;56948.66;5072856;28;20082;-78
2023/09/25 09:42:08;;;;;;;2.40;1.33;;;22.80;99.90;;;-144.05;36.58;56984.78;5081601;28;20028;-80
2023/09/25 09:44:35;;;;;;;2.53;1.10;;;21.20;99.90;;;-144.05;35.26;56984.78;5073716;28;20032;-80
2023/09/25 09:47:08;;;;;;;1.65;1.00;;;22.30;99.90;;;-144.05;34.65;56980.53;5074361;28;20025;-80
2023/09/25 09:49:39;;;;;;;1.73;1.10;;;22.80;99.90;;;-144.05;35.57;56972.03;5071399;28;20032;-81
2023/09/25 09:52:06;;;;;;;2.65;1.30;;;23.00;99.90;;;-144.05;35.00;56982.66;5074197;28;20040;-80
2023/09/25 09:54:42;;;;;;;1.83;1.00;;;19.60;99.90;;;-144.05;34.27;56993.25;5072677;28;20028;-80
2023/09/25 09:57:10;;;;;;;2.38;1.20;;;22.30;99.10;;;-144.05;33.89;56976.28;5073460;28;20037;-78
2023/09/25 09:59:36;;;;;;;2.15;1.10;;;21.60;99.10;;;-144.05;34.83;56986.91;5072401;28;20456;-80
2023/09/25 10:02:06;;;;;;;2.17;1.17;;;22.80;98.40;;;-144.05;34.20;56972.03;5072153;28;20028;-79
2023/09/25 10:04:32;;;;;;;2.65;1.30;;;22.70;99.80;;;-144.05;33.39;56972.03;5073521;28;20020;-80
2023/09/25 10:07:05;;;;;;;1.55;0.93;;;20.10;98.90;;;-144.05;34.83;56978.41;5073717;28;20016;-78
2023/09/25 10:09:32;;;;;;;3.35;1.30;;;19.70;98.40;;;-144.05;34.12;56993.25;5073364;28;20028;-80
2023/09/25 10:11:58;;;;;;;2.70;1.10;;;22.60;99.00;;;-144.05;34.67;56976.28;5073233;28;20052;-79
2023/09/25 10:14:29;;;;;;;2.50;1.00;;;21.30;99.00;;;-144.05;34.37;56963.53;5073155;28;20131;-80